Time;durP1;ratioP1;P1;durP2;ratioP2;P2;SDS_P1;SDS_P2;PMS_P1;PMS_P2;Temp;Humidity;BMP_temperature;BMP_pressure;BME280_temperature;BME280_humidity;BME280_pressure;Samples;Min_cycle;Max_cycle;Signal;HPM_P1;HPM_P2
2024/01/19 00:00:11;;;;;;;22.58;12.48;;;;;;;;;;5015451;28;20040;-50
2024/01/19 00:02:36;;;;;;;16.90;9.45;;;14.40;99.90;;;;;;5048244;28;20128;-50
2024/01/19 00:05:05;;;;;;;15.68;8.43;;;14.40;99.90;;;;;;5048517;28;20112;-49
2024/01/19 00:07:31;;;;;;;27.38;16.05;;;14.60;99.90;;;;;;5015435;28;20037;-53
2024/01/19 00:09:57;;;;;;;14.60;5.88;;;14.60;99.90;;;;;;5048532;28;20204;-51
2024/01/19 00:12:23;;;;;;;6.65;3.10;;;14.70;99.90;;;;;;5015319;28;20048;-48
2024/01/19 00:14:48;;;;;;;15.55;8.65;;;14.70;99.90;;;;;;5048289;28;20033;-49
2024/01/19 00:17:14;;;;;;;58.40;37.35;;;14.70;99.90;;;;;;5048604;28;20386;-50
2024/01/19 00:19:40;;;;;;;18.90;11.75;;;14.70;99.90;;;;;;5015357;28;20037;-51
2024/01/19 00:22:06;;;;;;;13.32;6.55;;;14.50;99.90;;;;;;5048187;28;20738;-51
2024/01/19 00:24:31;;;;;;;12.18;6.50;;;14.30;99.90;;;;;;5048379;28;20072;-50
2024/01/19 00:26:58;;;;;;;12.25;7.70;;;;;;;;;;5050287;28;20052;-51
2024/01/19 00:29:24;;;;;;;11.40;5.95;;;;;;;;;;5085908;28;20060;-53
2024/01/19 00:31:50;;;;;;;8.82;4.95;;;;;;;;;;5038655;28;20054;-50
2024/01/19 00:34:16;;;;;;;10.63;5.22;;;;;;;;;;5091164;28;20103;-52
2024/01/19 00:36:42;;;;;;;11.57;5.30;;;;;;;;;;5070558;28;20522;-51
2024/01/19 00:39:09;;;;;;;11.18;5.57;;;;;;;;;;5070612;28;20151;-53
2024/01/19 00:41:35;;;;;;;13.63;5.85;;;13.60;99.90;;;;;;5070018;28;20036;-52
2024/01/19 00:44:01;;;;;;;10.52;5.70;;;;;;;;;;5070643;28;20028;-53
2024/01/19 00:46:28;;;;;;;9.43;4.55;;;;;;;;;;5070769;28;20032;-52
2024/01/19 00:48:54;;;;;;;8.13;4.40;;;;;;;;;;5070545;28;20033;-49
2024/01/19 00:51:20;;;;;;;11.93;8.27;;;;;;;;;;5070577;28;20035;-51
2024/01/19 00:53:46;;;;;;;18.73;8.43;;;;;;;;;;5070910;28;20020;-51
2024/01/19 00:56:15;;;;;;;12.65;6.97;;;;;;;;;;5070822;28;20025;-48
2024/01/19 00:58:42;;;;;;;20.65;9.93;;;;;;;;;;5070681;28;20471;-52
2024/01/19 01:01:08;;;;;;;17.15;9.45;;;14.60;99.90;;;;;;5070363;28;20047;-50
2024/01/19 01:03:33;;;;;;;11.27;4.75;;;14.70;99.90;;;;;;5070678;28;20036;-49
2024/01/19 01:05:59;;;;;;;10.43;5.40;;;14.70;99.90;;;;;;5034773;28;20036;-53
2024/01/19 01:08:27;;;;;;;11.57;6.75;;;14.80;99.90;;;;;;5070857;28;20173;-51
2024/01/19 01:10:54;;;;;;;13.35;8.23;;;;;;;;;;5070656;28;20040;-51
2024/01/19 01:13:20;;;;;;;13.70;5.88;;;;;;;;;;5052335;28;20566;-51
2024/01/19 01:15:47;;;;;;;10.27;4.28;;;;;;;;;;5070830;28;20037;-50
2024/01/19 01:18:13;;;;;;;8.65;4.15;;;;;;;;;;5070283;28;20120;-49
2024/01/19 01:20:39;;;;;;;12.70;6.18;;;;;;;;;;5070296;28;20480;-50
2024/01/19 01:23:05;;;;;;;6.68;2.53;;;;;;;;;;5070131;28;20461;-53
2024/01/19 01:25:32;;;;;;;6.78;2.63;;;;;;;;;;5070712;28;20082;-53
2024/01/19 01:27:58;;;;;;;3.17;1.40;;;;;;;;;;5070634;28;20028;-53
2024/01/19 01:30:24;;;;;;;8.10;1.55;;;;;;;;;;5070074;28;20058;-51
2024/01/19 01:32:50;;;;;;;7.63;1.30;;;;;;;;;;5070544;28;20498;-49
2024/01/19 01:35:16;;;;;;;5.43;1.67;;;15.00;99.90;;;;;;5078521;28;20576;-51
2024/01/19 01:37:42;;;;;;;6.60;1.50;;;;;;;;;;5090414;28;20024;-53
2024/01/19 01:40:08;;;;;;;5.13;1.45;;;15.10;99.90;;;;;;5090496;28;20028;-52
2024/01/19 01:42:35;;;;;;;7.47;1.92;;;15.10;99.90;;;;;;5054463;28;20042;-51
2024/01/19 01:45:01;;;;;;;5.63;1.60;;;15.20;99.90;;;;;;5092140;28;20063;-52
2024/01/19 01:47:27;;;;;;;4.93;2.10;;;15.10;99.90;;;;;;5110383;28;20028;-49
2024/01/19 01:49:54;;;;;;;16.80;9.70;;;15.20;99.90;;;;;;5033683;28;20051;-48
2024/01/19 01:52:20;;;;;;;18.33;8.70;;;15.30;99.90;;;;;;5069884;28;20097;-50
2024/01/19 01:54:46;;;;;;;10.88;3.70;;;15.30;99.90;;;;;;4981383;28;20038;-50
2024/01/19 01:57:14;;;;;;;6.15;2.60;;;15.20;99.90;;;;;;5031082;28;20052;-53
2024/01/19 01:59:41;;;;;;;18.63;11.90;;;;;;;;;;5030960;28;20154;-51
2024/01/19 02:02:06;;;;;;;9.10;5.05;;;15.30;99.90;;;;;;5030702;28;20053;-52
2024/01/19 02:04:34;;;;;;;11.65;5.40;;;;;;;;;;5030782;28;20113;-52
2024/01/19 02:07:00;;;;;;;16.20;10.52;;;15.30;99.90;;;;;;5030988;28;20030;-55
2024/01/19 02:09:26;;;;;;;10.88;4.45;;;15.20;99.90;;;;;;4981434;28;20100;-49
2024/01/19 02:11:53;;;;;;;10.40;5.13;;;15.10;99.90;;;;;;4981494;28;20037;-51
2024/01/19 02:14:18;;;;;;;12.95;6.30;;;15.10;99.90;;;;;;5030570;28;20553;-50
2024/01/19 02:16:44;;;;;;;11.02;4.97;;;15.00;99.90;;;;;;5030735;28;20116;-53
2024/01/19 02:19:10;;;;;;;10.65;4.22;;;;;;;;;;4997879;28;20088;-49
2024/01/19 02:21:36;;;;;;;7.80;3.25;;;;;;;;;;5046329;28;20078;-49
2024/01/19 02:24:04;;;;;;;9.48;3.63;;;;;;;;;;5050600;28;20501;-53
2024/01/19 02:26:31;;;;;;;9.43;4.60;;;;;;;;;;5078099;28;20377;-51
2024/01/19 02:28:57;;;;;;;10.15;4.10;;;;;;;;;;5090747;28;20051;-51
2024/01/19 02:31:23;;;;;;;8.80;4.03;;;;;;;;;;5090552;28;20067;-51
2024/01/19 02:33:49;;;;;;;8.35;3.53;;;;;;;;;;5090501;28;20024;-51
2024/01/19 02:36:15;;;;;;;12.85;4.53;;;;;;;;;;5090606;28;20048;-50
2024/01/19 02:38:41;;;;;;;11.60;5.68;;;;;;;;;;5056775;28;20133;-50
2024/01/19 02:41:07;;;;;;;9.50;4.32;;;;;;;;;;5073351;28;20492;-49
2024/01/19 02:43:33;;;;;;;13.57;6.00;;;;;;;;;;5056688;28;20040;-51
2024/01/19 02:45:59;;;;;;;12.15;4.85;;;;;;;;;;5090481;28;20143;-50
2024/01/19 02:48:25;;;;;;;18.02;8.32;;;;;;;;;;5090303;28;20035;-51
2024/01/19 02:50:51;;;;;;;16.08;7.32;;;;;;;;;;5090307;28;20040;-52
2024/01/19 02:53:17;;;;;;;12.95;4.90;;;;;;;;;;5090338;28;20101;-50
2024/01/19 02:55:44;;;;;;;21.08;8.55;;;;;;;;;;5090206;28;20047;-51
2024/01/19 02:58:10;;;;;;;17.70;8.55;;;;;;;;;;5056646;28;20578;-50
2024/01/19 03:00:36;;;;;;;30.70;16.77;;;;;;;;;;5056470;28;20040;-49
2024/01/19 03:03:02;;;;;;;21.33;12.07;;;;;;;;;;5092029;28;20705;-55
2024/01/19 03:05:28;;;;;;;19.83;10.70;;;;;;;;;;5112943;28;20443;-48
2024/01/19 03:07:54;;;;;;;19.33;10.63;;;;;;;;;;5113018;28;20027;-51
2024/01/19 03:10:20;;;;;;;19.45;9.85;;;;;;;;;;5076512;28;20146;-50
2024/01/19 03:12:46;;;;;;;12.20;5.15;;;;;;;;;;5059734;28;20119;-52
2024/01/19 03:15:12;;;;;;;8.23;4.20;;;13.30;99.90;;;;;;5112774;28;20031;-54
2024/01/19 03:17:37;;;;;;;8.75;4.55;;;13.10;99.90;;;;;;5112535;28;20391;-51
2024/01/19 03:20:05;;;;;;;13.40;4.75;;;13.20;99.90;;;;;;5112845;28;20059;-51
2024/01/19 03:22:31;;;;;;;6.75;2.92;;;13.40;99.90;;;;;;5112868;28;20046;-54
2024/01/19 03:24:57;;;;;;;11.57;3.38;;;13.50;99.90;;;;;;5112770;28;20387;-54
2024/01/19 03:27:23;;;;;;;16.02;4.55;;;;;;;;;;5112523;28;20043;-52
2024/01/19 03:29:49;;;;;;;9.25;4.13;;;14.00;99.90;;;;;;5112140;28;20517;-52
2024/01/19 03:32:14;;;;;;;16.75;5.68;;;14.00;99.90;;;;;;5112586;28;20031;-52
2024/01/19 03:34:40;;;;;;;16.00;8.23;;;14.10;99.90;;;;;;5111951;28;20079;-52
2024/01/19 03:37:06;;;;;;;12.32;5.78;;;13.90;99.90;;;;;;5112116;28;20064;-51
2024/01/19 03:39:33;;;;;;;10.65;4.97;;;13.90;99.90;;;;;;5092928;28;20043;-51
2024/01/19 03:42:00;;;;;;;6.70;3.10;;;13.90;99.90;;;;;;5112396;28;20032;-54
2024/01/19 03:44:26;;;;;;;6.18;2.30;;;13.90;99.90;;;;;;5112433;28;20030;-53
2024/01/19 03:46:52;;;;;;;4.95;2.58;;;;;;;;;;5055584;28;20032;-54
2024/01/19 03:49:18;;;;;;;4.60;1.63;;;14.00;99.90;;;;;;5091138;28;20490;-53
2024/01/19 03:52:07;;;;;;;5.85;1.90;;;14.00;99.90;;;;;;5101172;28;20097;-53
2024/01/19 03:54:33;;;;;;;6.50;1.75;;;14.00;99.90;;;;;;5093699;28;20030;-50
2024/01/19 03:57:02;;;;;;;5.43;2.85;;;13.90;99.90;;;;;;5075652;28;20035;-51
2024/01/19 03:59:28;;;;;;;7.13;2.63;;;14.10;99.90;;;;;;5058987;28;20518;-52
2024/01/19 04:01:55;;;;;;;7.65;3.40;;;13.80;99.90;;;;;;5111996;28;20074;-48
2024/01/19 04:04:21;;;;;;;8.63;3.50;;;;;;;;;;5111534;28;20491;-51
2024/01/19 04:06:47;;;;;;;9.80;3.90;;;;;;;;;;5110631;28;20447;-51
2024/01/19 04:09:16;;;;;;;7.38;2.95;;;;;;;;;;5097122;28;20028;-51
2024/01/19 04:11:43;;;;;;;7.75;3.38;;;13.30;99.90;;;;;;5055434;28;20039;-50
2024/01/19 04:14:09;;;;;;;8.93;3.28;;;13.20;99.90;;;;;;5091053;28;20050;-53
2024/01/19 04:16:35;;;;;;;9.32;4.20;;;12.90;99.90;;;;;;5090631;28;20031;-51
2024/01/19 04:19:00;;;;;;;5.88;3.25;;;12.80;99.90;;;;;;5091218;28;20020;-48
2024/01/19 04:21:26;;;;;;;6.60;4.18;;;12.60;99.90;;;;;;5091141;28;20050;-52
2024/01/19 04:23:52;;;;;;;10.23;4.05;;;12.60;99.90;;;;;;5090957;28;20031;-49
2024/01/19 04:26:18;;;;;;;8.10;4.60;;;12.50;99.90;;;;;;5091390;28;20110;-51
2024/01/19 04:28:43;;;;;;;8.52;4.55;;;12.40;99.90;;;;;;5055136;28;20155;-48
2024/01/19 04:31:09;;;;;;;8.23;4.82;;;12.20;99.90;;;;;;5055184;28;20054;-54
2024/01/19 04:33:35;;;;;;;10.90;4.57;;;12.10;99.90;;;;;;5090910;28;20032;-52
2024/01/19 04:36:01;;;;;;;9.65;5.72;;;12.00;99.90;;;;;;5090786;28;20055;-49
2024/01/19 04:38:26;;;;;;;16.20;6.88;;;11.90;99.90;;;;;;5091325;28;20032;-51
2024/01/19 04:40:54;;;;;;;12.15;7.10;;;11.90;99.90;;;;;;5090683;28;20063;-49
2024/01/19 04:43:20;;;;;;;14.82;6.40;;;11.90;99.90;;;;;;5090955;28;20034;-53
2024/01/19 04:45:45;;;;;;;12.77;5.72;;;11.90;99.90;;;;;;5090995;28;20032;-52
2024/01/19 04:48:11;;;;;;;14.57;5.57;;;11.90;99.90;;;;;;5054948;28;20085;-50
2024/01/19 04:50:38;;;;;;;11.85;4.75;;;11.90;99.90;;;;;;5091008;28;20489;-52
2024/01/19 04:53:04;;;;;;;10.48;4.90;;;11.80;99.90;;;;;;5090807;28;20020;-52
2024/01/19 04:55:30;;;;;;;11.50;5.28;;;11.80;99.90;;;;;;5090885;28;20099;-54
2024/01/19 04:57:56;;;;;;;10.13;4.88;;;11.80;99.90;;;;;;5090607;28;20443;-51
2024/01/19 05:00:22;;;;;;;10.25;4.53;;;11.70;99.90;;;;;;5090838;28;20028;-50
2024/01/19 05:02:48;;;;;;;9.38;4.95;;;11.80;99.90;;;;;;5090973;28;20043;-51
2024/01/19 05:05:15;;;;;;;9.13;5.40;;;;;;;;;;5092760;28;20128;-47
2024/01/19 05:07:40;;;;;;;8.90;5.10;;;11.60;99.90;;;;;;5100888;28;20032;-49
2024/01/19 05:10:06;;;;;;;9.32;6.18;;;11.70;99.90;;;;;;5057470;28;20059;-51
2024/01/19 05:12:33;;;;;;;4.68;3.88;;;11.50;99.90;;;;;;5005045;28;20394;-52
2024/01/19 05:14:58;;;;;;;8.38;4.90;;;11.40;99.90;;;;;;5097936;28;20054;-52
2024/01/19 05:17:24;;;;;;;4.78;3.50;;;10.90;99.90;;;;;;5092663;28;20020;-52
2024/01/19 05:19:50;;;;;;;8.93;5.30;;;10.80;99.90;;;;;;5110873;28;20132;-52
2024/01/19 05:22:16;;;;;;;8.43;5.72;;;10.70;99.90;;;;;;5094146;28;20069;-50
2024/01/19 05:24:42;;;;;;;6.15;3.80;;;10.60;99.90;;;;;;5021604;28;20067;-52
2024/01/19 05:27:09;;;;;;;6.15;4.85;;;10.40;99.90;;;;;;5092646;28;20028;-52
2024/01/19 05:29:35;;;;;;;7.30;5.35;;;10.20;99.90;;;;;;5099151;28;20034;-49
2024/01/19 05:32:01;;;;;;;6.95;6.15;;;10.10;99.90;;;;;;5114478;28;20149;-52
2024/01/19 05:34:27;;;;;;;8.77;5.70;;;10.10;99.90;;;;;;5112206;28;20031;-49
2024/01/19 05:36:54;;;;;;;8.05;6.03;;;10.20;99.90;;;;;;5114914;28;20561;-52
2024/01/19 05:39:19;;;;;;;8.82;7.47;;;10.20;99.90;;;;;;5110983;28;20407;-51
2024/01/19 05:41:45;;;;;;;8.00;5.90;;;10.10;99.90;;;;;;5114051;28;20042;-48
2024/01/19 05:44:11;;;;;;;7.80;6.55;;;10.00;99.90;;;;;;5114588;28;20051;-52
2024/01/19 05:46:36;;;;;;;10.63;6.93;;;9.80;99.90;;;;;;5078395;28;20034;-50
2024/01/19 05:49:02;;;;;;;9.55;6.88;;;9.70;99.90;;;;;;5107126;28;20027;-50
2024/01/19 05:51:28;;;;;;;10.63;7.97;;;9.50;99.90;;;;;;5067402;28;20071;-52
2024/01/19 05:53:55;;;;;;;11.10;7.05;;;;;;;;;;5102816;28;20540;-52
2024/01/19 05:56:21;;;;;;;9.00;7.45;;;;;;;;;;5104487;28;20059;-51
2024/01/19 05:58:47;;;;;;;8.80;7.07;;;;;;;;;;5103271;28;20093;-51
2024/01/19 06:01:13;;;;;;;10.30;7.30;;;;;;;;;;5107031;28;20032;-52
2024/01/19 06:03:39;;;;;;;10.82;8.23;;;;;;;;;;5104853;28;20097;-50
2024/01/19 06:06:06;;;;;;;8.70;6.70;;;;;;;;;;5038772;28;20032;-49
2024/01/19 06:08:33;;;;;;;7.90;6.53;;;;;;;;;;5093552;28;20031;-50
2024/01/19 06:10:59;;;;;;;5.65;4.32;;;9.10;99.90;;;;;;5102721;28;20032;-48
2024/01/19 06:13:24;;;;;;;9.38;6.60;;;8.80;99.90;;;;;;5100135;28;20024;-49
2024/01/19 06:15:50;;;;;;;12.70;8.90;;;8.80;99.90;;;;;;5113398;28;20085;-51
2024/01/19 06:18:16;;;;;;;8.82;6.55;;;8.90;99.90;;;;;;5100483;28;20047;-50
2024/01/19 06:20:42;;;;;;;9.82;8.70;;;8.80;99.90;;;;;;5098984;28;20084;-51
2024/01/19 06:23:12;;;;;;;10.00;8.02;;;8.90;99.90;;;;;;5060268;28;20055;-51
2024/01/19 06:25:39;;;;;;;9.68;8.15;;;9.00;99.90;;;;;;5084396;28;20043;-49
2024/01/19 06:28:05;;;;;;;9.48;8.07;;;8.90;99.90;;;;;;5078089;28;20115;-50
2024/01/19 06:30:31;;;;;;;25.77;16.13;;;8.80;99.90;;;;;;5051370;28;20129;-51
2024/01/19 06:32:57;;;;;;;63.83;32.75;;;8.60;99.90;;;;;;5101298;28;20471;-48
2024/01/19 06:35:23;;;;;;;69.70;40.63;;;;;;;;;;5071972;28;20433;-52
2024/01/19 06:37:50;;;;;;;24.50;17.60;;;8.30;99.90;;;;;;5092559;28;20023;-50
2024/01/19 06:40:15;;;;;;;31.48;24.95;;;8.30;99.90;;;;;;5093163;28;20035;-49
2024/01/19 06:42:44;;;;;;;14.00;10.80;;;8.10;99.90;;;;;;5092954;28;20403;-51
2024/01/19 06:45:10;;;;;;;33.65;24.52;;;8.10;99.90;;;;;;5093127;28;20035;-48
2024/01/19 06:47:36;;;;;;;57.38;42.30;;;8.00;99.90;;;;;;5093168;28;20024;-52
2024/01/19 06:50:01;;;;;;;60.85;47.03;;;8.10;99.90;;;;;;5074062;28;20032;-51
2024/01/19 06:52:27;;;;;;;49.17;25.38;;;8.20;99.90;;;;;;5092855;28;20020;-52
2024/01/19 06:54:53;;;;;;;98.82;47.53;;;8.10;99.90;;;;;;5092936;28;20036;-48
2024/01/19 06:57:19;;;;;;;34.33;17.65;;;7.80;99.90;;;;;;5092986;28;20073;-48
2024/01/19 06:59:44;;;;;;;58.20;26.85;;;7.60;99.90;;;;;;5073701;28;20068;-48
2024/01/19 07:02:10;;;;;;;43.28;15.77;;;;;;;;;;5093062;28;20040;-48
2024/01/19 07:04:36;;;;;;;15.43;7.97;;;;;;;;;;5092830;28;20106;-50
2024/01/19 07:07:03;;;;;;;232.18;72.55;;;7.40;99.90;;;;;;5093014;28;20035;-48
2024/01/19 07:09:29;;;;;;;170.05;60.50;;;7.30;99.90;;;;;;5007459;28;20050;-51
2024/01/19 07:11:54;;;;;;;77.93;26.70;;;7.50;99.90;;;;;;5092712;28;20547;-48
2024/01/19 07:14:20;;;;;;;129.18;37.08;;;7.40;99.90;;;;;;5092535;28;20028;-48
2024/01/19 07:16:46;;;;;;;139.15;43.58;;;7.40;99.90;;;;;;5092751;28;20028;-50
2024/01/19 07:19:12;;;;;;;72.75;24.35;;;7.30;99.90;;;;;;5092826;28;20024;-51
2024/01/19 07:21:38;;;;;;;71.50;22.10;;;7.20;99.90;;;;;;5092242;28;20040;-51
2024/01/19 07:24:08;;;;;;;259.52;77.07;;;7.20;99.90;;;;;;5092514;28;20024;-48
2024/01/19 07:26:35;;;;;;;134.48;42.05;;;7.20;99.90;;;;;;5092170;28;20038;-48
2024/01/19 07:29:04;;;;;;;55.25;19.90;;;7.30;99.90;;;;;;5092251;28;20487;-52
2024/01/19 07:31:31;;;;;;;116.68;35.58;;;;;;;;;;5088937;28;20039;-50
2024/01/19 07:33:57;;;;;;;170.40;50.65;;;;;;;;;;5092126;28;20036;-51
2024/01/19 07:36:23;;;;;;;138.63;40.70;;;;;;;;;;5109593;28;20055;-49
2024/01/19 07:38:49;;;;;;;235.48;61.08;;;;;;;;;;5112609;28;20574;-58
2024/01/19 07:41:15;;;;;;;65.80;19.13;;;;;;;;;;5112393;28;20023;-50
2024/01/19 07:43:41;;;;;;;36.22;14.60;;;;;;;;;;5059610;28;20039;-51
2024/01/19 07:46:07;;;;;;;72.30;24.25;;;;;;;;;;5109094;28;20063;-52
2024/01/19 07:48:33;;;;;;;66.40;20.48;;;;;;;;;;5112244;28;20106;-48
2024/01/19 07:50:59;;;;;;;164.88;51.08;;;;;;;;;;5112028;28;20442;-50
2024/01/19 07:53:25;;;;;;;112.30;32.20;;;;;;;;;;5112501;28;20055;-50
2024/01/19 07:55:52;;;;;;;67.80;26.02;;;;;;;;;;5059285;28;20157;-51
2024/01/19 07:58:18;;;;;;;28.75;15.63;;;;;;;;;;5112179;28;20623;-50
2024/01/19 08:00:44;;;;;;;123.47;42.58;;;;;;;;;;5112252;28;20023;-49
2024/01/19 08:03:10;;;;;;;50.25;22.65;;;;;;;;;;5112194;28;20054;-50
2024/01/19 08:05:36;;;;;;;27.48;10.90;;;;;;;;;;5111892;28;20157;-49
2024/01/19 08:08:02;;;;;;;38.65;16.83;;;;;;;;;;5111768;28;20023;-51
2024/01/19 08:10:31;;;;;;;43.47;19.38;;;6.20;99.90;;;;;;5112294;28;20027;-50
2024/01/19 08:12:58;;;;;;;61.00;24.95;;;6.10;99.90;;;;;;5111854;28;20035;-51
2024/01/19 08:15:23;;;;;;;27.98;14.95;;;6.00;99.90;;;;;;5111842;28;20076;-49
2024/01/19 08:17:49;;;;;;;166.90;49.92;;;6.00;99.90;;;;;;5111848;28;20024;-50
2024/01/19 08:20:15;;;;;;;45.70;19.23;;;6.00;99.90;;;;;;5111909;28;20031;-51
2024/01/19 08:22:41;;;;;;;96.53;29.40;;;5.70;99.90;;;;;;5058708;28;20050;-51
2024/01/19 08:25:09;;;;;;;94.82;32.38;;;5.60;99.90;;;;;;5111524;28;20087;-49
2024/01/19 08:27:35;;;;;;;95.28;32.13;;;5.70;99.90;;;;;;5093158;28;20733;-48
2024/01/19 08:30:01;;;;;;;37.65;14.15;;;5.60;99.90;;;;;;5111428;28;20027;-48
2024/01/19 08:32:27;;;;;;;146.00;43.17;;;5.70;99.90;;;;;;5111736;28;20487;-49
2024/01/19 08:34:53;;;;;;;76.25;25.98;;;5.90;99.90;;;;;;5110938;28;20063;-48
2024/01/19 08:37:19;;;;;;;91.47;28.85;;;;;;;;;;5111591;28;20038;-51
2024/01/19 08:39:45;;;;;;;126.32;39.42;;;5.70;99.90;;;;;;5111442;28;20023;-50
2024/01/19 08:42:10;;;;;;;55.10;18.40;;;5.40;99.90;;;;;;5110996;28;20573;-49
2024/01/19 08:44:36;;;;;;;36.28;13.57;;;5.30;99.90;;;;;;5111671;28;20795;-48
2024/01/19 08:47:02;;;;;;;98.15;34.50;;;5.20;99.90;;;;;;5111192;28;20073;-49
2024/01/19 08:49:28;;;;;;;13.57;6.82;;;5.30;99.90;;;;;;5058909;28;20062;-49
2024/01/19 08:51:53;;;;;;;50.80;20.33;;;5.10;99.90;;;;;;5111272;28;20031;-49
2024/01/19 08:54:19;;;;;;;25.17;9.73;;;5.00;99.90;;;;;;5075239;28;20251;-49
2024/01/19 08:56:45;;;;;;;52.55;17.58;;;4.90;99.90;;;;;;5110804;28;20559;-51
2024/01/19 08:59:14;;;;;;;61.53;22.60;;;4.90;99.90;;;;;;5110853;28;20043;-50
2024/01/19 09:01:40;;;;;;;35.42;10.93;;;5.00;99.90;;;;;;5061190;28;20040;-49
2024/01/19 09:04:05;;;;;;;43.75;14.90;;;4.90;99.90;;;;;;5115300;28;20490;-49
2024/01/19 09:06:31;;;;;;;19.33;9.23;;;;;;;;;;5115733;28;20027;-48
2024/01/19 09:09:01;;;;;;;57.53;20.05;;;5.40;99.90;;;;;;5108807;28;20101;-52
2024/01/19 09:11:27;;;;;;;105.10;35.03;;;5.10;99.90;;;;;;5054292;28;20059;-49
2024/01/19 09:13:53;;;;;;;54.65;21.17;;;5.30;99.90;;;;;;5097456;28;20028;-49
2024/01/19 09:16:19;;;;;;;21.52;9.20;;;5.40;99.90;;;;;;5097599;28;20035;-48
2024/01/19 09:18:45;;;;;;;34.42;15.40;;;5.30;99.90;;;;;;5115170;28;20114;-51
2024/01/19 09:21:19;;;;;;;32.00;12.85;;;5.10;99.90;;;;;;5115028;28;20138;-48
2024/01/19 09:23:45;;;;;;;24.90;10.02;;;;;;;;;;5113642;28;20043;-47
2024/01/19 09:26:21;;;;;;;27.13;10.15;;;5.10;99.90;;;;;;5114432;28;20120;-50
2024/01/19 09:28:47;;;;;;;17.30;9.57;;;3.90;99.90;;;;;;5113958;28;20110;-48
2024/01/19 09:31:14;;;;;;;34.53;16.23;;;5.20;99.90;;;;;;5077425;28;20132;-51
2024/01/19 09:33:40;;;;;;;13.35;7.70;;;;;;;;;;5114235;28;20054;-49
2024/01/19 09:36:07;;;;;;;27.50;12.90;;;;;;;;;;5100278;28;20279;-49
2024/01/19 09:38:35;;;;;;;16.63;8.75;;;5.00;99.90;;;;;;5111990;28;20028;-51
2024/01/19 09:41:15;;;;;;;18.63;9.93;;;;;;;;;;5043538;28;20096;-50
2024/01/19 09:43:42;;;;;;;9.18;4.50;;;4.80;99.90;;;;;;5070015;28;20662;-51
2024/01/19 09:46:12;;;;;;;14.70;7.80;;;;;;;;;;5070149;28;20121;-50
2024/01/19 09:48:44;;;;;;;10.25;6.10;;;;;;;;;;5069375;28;20035;-50
2024/01/19 09:51:10;;;;;;;15.55;10.05;;;;;;;;;;5072526;28;20071;-49
2024/01/19 09:53:42;;;;;;;10.73;7.07;;;;;;;;;;5079517;28;20055;-49
2024/01/19 09:56:10;;;;;;;18.48;8.93;;;;;;;;;;5079313;28;20050;-51
2024/01/19 09:58:36;;;;;;;25.05;14.10;;;;;;;;;;5089839;28;20040;-51
2024/01/19 10:01:03;;;;;;;13.60;7.22;;;;;;;;;;5090334;28;20062;-50
2024/01/19 10:03:29;;;;;;;11.25;7.38;;;;;;;;;;5083353;28;20462;-50
2024/01/19 10:05:55;;;;;;;5.90;3.90;;;4.80;99.90;;;;;;5081366;28;20047;-51
2024/01/19 10:08:21;;;;;;;11.57;6.88;;;4.40;99.90;;;;;;5020348;28;20040;-49
2024/01/19 10:10:49;;;;;;;8.75;6.25;;;4.50;99.90;;;;;;5056021;28;20741;-49
2024/01/19 10:13:16;;;;;;;7.80;4.40;;;4.30;99.90;;;;;;5092510;28;20036;-52
2024/01/19 10:15:43;;;;;;;4.28;3.45;;;4.30;99.90;;;;;;5091604;28;20032;-49
2024/01/19 10:18:10;;;;;;;8.68;3.88;;;4.20;99.90;;;;;;5092619;28;20093;-48
2024/01/19 10:20:38;;;;;;;7.00;4.07;;;4.20;99.90;;;;;;5092431;28;20063;-51
2024/01/19 10:23:21;;;;;;;7.40;5.68;;;4.10;99.90;;;;;;5093185;28;20475;-50
2024/01/19 10:25:47;;;;;;;6.57;3.63;;;4.10;99.90;;;;;;5112667;28;20032;-49
2024/01/19 10:28:29;;;;;;;5.57;3.25;;;3.90;99.90;;;;;;5059650;28;20034;-50
2024/01/19 10:31:14;;;;;;;4.72;2.50;;;3.80;99.90;;;;;;5112130;28;20031;-51
2024/01/19 10:33:47;;;;;;;8.32;4.70;;;;;;;;;;5113176;27;20030;-50
2024/01/19 10:36:13;;;;;;;5.85;4.68;;;;;;;;;;5114215;27;20485;-51
2024/01/19 10:38:40;;;;;;;5.82;2.65;;;;;;;;;;5123032;27;20027;-50
2024/01/19 10:41:14;;;;;;;5.45;3.70;;;;;;;;;;5116652;27;20019;-48
2024/01/19 10:43:43;;;;;;;7.18;3.33;;;;;;;;;;5110795;28;20039;-50
2024/01/19 10:46:42;;;;;;;4.32;2.05;;;;;;;;;;5062024;28;20035;-52
2024/01/19 10:49:10;;;;;;;5.40;2.42;;;3.80;99.90;;;;;;5070280;28;20043;-52
2024/01/19 10:51:47;;;;;;;3.55;2.33;;;3.50;99.90;;;;;;5070303;28;20039;-52
2024/01/19 10:54:24;;;;;;;10.13;4.68;;;3.50;99.90;;;;;;5037806;28;20036;-49
2024/01/19 10:57:10;;;;;;;7.13;4.82;;;3.60;99.90;;;;;;5053269;28;20482;-52
2024/01/19 10:59:39;;;;;;;6.53;4.25;;;3.70;99.90;;;;;;5053090;28;20037;-51
2024/01/19 11:02:06;;;;;;;8.00;4.50;;;3.80;99.90;;;;;;5049936;28;20075;-51
2024/01/19 11:04:45;;;;;;;6.90;5.43;;;3.80;99.90;;;;;;5049931;28;20043;-51
2024/01/19 11:07:11;;;;;;;8.38;5.68;;;3.80;99.90;;;;;;5051028;28;20066;-52
2024/01/19 11:09:40;;;;;;;14.55;5.57;;;4.10;99.90;;;;;;5050831;28;20605;-52
2024/01/19 11:12:11;;;;;;;6.50;4.93;;;3.90;99.90;;;;;;5001981;28;20052;-48
2024/01/19 11:14:46;;;;;;;5.50;3.43;;;4.00;99.90;;;;;;5050637;28;20045;-50
2024/01/19 11:17:13;;;;;;;7.18;4.57;;;4.00;99.90;;;;;;5010727;28;20124;-50
2024/01/19 11:19:39;;;;;;;6.95;4.90;;;;;;;;;;4992616;28;20871;-49
2024/01/19 11:22:05;;;;;;;5.00;3.70;;;;;;;;;;4995474;28;20053;-51
2024/01/19 11:24:35;;;;;;;6.18;3.03;;;;;;;;;;5027775;28;20021;-48
2024/01/19 11:27:12;;;;;;;7.95;4.78;;;;;;;;;;5028547;28;20453;-51
2024/01/19 11:29:44;;;;;;;12.68;4.07;;;;;;;;;;4994973;28;20121;-51
2024/01/19 11:32:11;;;;;;;10.10;5.88;;;;;;;;;;5031252;28;20381;-49
2024/01/19 11:34:50;;;;;;;8.95;4.80;;;4.20;99.90;;;;;;5050529;28;21471;-51
2024/01/19 11:37:46;;;;;;;5.13;3.42;;;4.10;99.90;;;;;;5068210;28;20044;-50
2024/01/19 11:40:24;;;;;;;9.73;3.90;;;;;;;;;;5053260;28;20041;-50
2024/01/19 11:42:50;;;;;;;4.03;3.58;;;;;;;;;;5066375;28;20044;-49
2024/01/19 11:45:28;;;;;;;5.72;4.20;;;;;;;;;;5059164;28;20037;-49
2024/01/19 11:47:55;;;;;;;5.40;4.70;;;;;;;;;;5067714;28;20385;-50
2024/01/19 11:50:41;;;;;;;8.73;4.63;;;;;;;;;;5028348;28;20026;-46
2024/01/19 11:53:06;;;;;;;13.52;5.65;;;4.10;99.90;;;;;;5028285;28;20029;-48
2024/01/19 11:55:32;;;;;;;11.43;5.60;;;4.20;99.90;;;;;;5065226;28;20037;-51
2024/01/19 11:58:18;;;;;;;15.77;8.93;;;;;;;;;;5070415;28;20052;-47
2024/01/19 12:00:47;;;;;;;9.15;5.95;;;4.10;99.90;;;;;;5070214;28;20032;-51
2024/01/19 12:03:13;;;;;;;15.40;5.40;;;4.20;99.90;;;;;;5072407;28;20510;-51
2024/01/19 12:05:42;;;;;;;26.73;8.90;;;;;;;;;;5090490;28;20028;-50
2024/01/19 12:08:08;;;;;;;6.47;3.83;;;;;;;;;;5090749;28;20483;-50
2024/01/19 12:10:34;;;;;;;22.52;10.48;;;;;;;;;;5090479;28;20024;-49
2024/01/19 12:13:00;;;;;;;7.93;2.78;;;;;;;;;;5037936;28;20046;-50
2024/01/19 12:15:26;;;;;;;15.95;8.32;;;3.70;99.90;;;;;;5090526;28;20031;-49
2024/01/19 12:17:52;;;;;;;8.23;4.97;;;3.60;99.90;;;;;;5090209;28;20031;-51
2024/01/19 12:20:18;;;;;;;17.88;7.32;;;;;;;;;;5090138;28;20032;-50
2024/01/19 12:22:53;;;;;;;22.45;10.32;;;3.60;99.90;;;;;;5090263;28;20028;-51
2024/01/19 12:25:20;;;;;;;27.95;9.40;;;3.70;99.90;;;;;;5090397;28;20422;-50
2024/01/19 12:27:47;;;;;;;22.17;11.65;;;3.70;99.90;;;;;;5054492;28;20058;-50
2024/01/19 12:30:15;;;;;;;21.77;6.43;;;3.70;99.90;;;;;;5071755;28;20489;-48
2024/01/19 12:32:42;;;;;;;16.15;8.43;;;3.60;99.90;;;;;;5054606;28;20040;-49
2024/01/19 12:35:08;;;;;;;21.05;8.57;;;3.80;99.90;;;;;;5096663;28;20051;-47
2024/01/19 12:37:34;;;;;;;11.88;7.03;;;3.80;99.90;;;;;;5109669;28;20034;-50
2024/01/19 12:40:18;;;;;;;5.20;3.65;;;4.00;99.90;;;;;;5073998;28;20414;-51
2024/01/19 12:42:44;;;;;;;8.10;4.88;;;4.10;99.90;;;;;;5110543;28;20039;-48
2024/01/19 12:45:15;;;;;;;16.15;6.38;;;4.20;99.90;;;;;;5110127;28;20028;-50
2024/01/19 12:47:45;;;;;;;12.77;5.82;;;4.20;99.90;;;;;;5110327;28;20419;-51
2024/01/19 12:50:12;;;;;;;10.55;4.97;;;4.20;99.90;;;;;;5109887;27;20455;-49
2024/01/19 12:52:38;;;;;;;6.63;4.38;;;4.00;99.90;;;;;;5109953;28;20031;-49
2024/01/19 12:55:04;;;;;;;6.38;4.00;;;4.10;99.90;;;;;;5109920;28;20150;-50
2024/01/19 12:57:30;;;;;;;13.13;6.63;;;4.10;99.90;;;;;;5024226;28;20040;-49
2024/01/19 13:00:14;;;;;;;21.30;7.20;;;3.80;99.90;;;;;;5073697;28;20118;-50
2024/01/19 13:02:43;;;;;;;101.95;21.25;;;3.80;99.90;;;;;;5109980;28;20084;-47
2024/01/19 13:05:22;;;;;;;6.75;3.92;;;;;;;;;;5110163;28;20463;-51
2024/01/19 13:07:49;;;;;;;4.63;3.45;;;4.10;99.90;;;;;;5073665;28;20039;-47
2024/01/19 13:10:17;;;;;;;21.50;7.78;;;4.20;99.90;;;;;;5110081;28;20028;-49
2024/01/19 13:12:43;;;;;;;6.85;3.03;;;4.30;99.90;;;;;;5110115;28;20031;-49
2024/01/19 13:15:10;;;;;;;10.82;3.95;;;4.00;99.90;;;;;;5073787;28;20036;-50
2024/01/19 13:17:38;;;;;;;4.85;3.90;;;4.10;99.90;;;;;;5109698;28;20024;-51
2024/01/19 13:20:07;;;;;;;15.27;8.18;;;4.10;99.90;;;;;;5109939;28;20031;-49